Home   Weather   Spain   Santa Cruz de Tenerife   Past weeks
Flag for Spain

Past Weather in Santa Cruz de Tenerife, Santa Cruz De Tenerife, Spain — Yesterday and Last 2 Weeks

Currently: 66 °F. Mild. (Weather station: Tenerife / Los Rodeos, Spain). See more current weather

Past Weather in Santa Cruz de Tenerife — Graph

°F

Santa Cruz de Tenerife Temperature Yesterday

Maximum temperature yesterday: 84 °F (at 11:30 am)
Minimum temperature yesterday: 61 °F (at 5:30 am)
Average temperature yesterday: 69 °F

High & Low Weather Summary for the Past Weeks

 TemperatureHumidityPressure
High84 °F (Jul 13, 11:30 am)100% (Jun 29, 8:34 pm)30.21 "Hg (Jun 29, 8:34 pm)
Low57 °F (Jul 8, 5:00 am)30% (Jul 13, 9:30 am)30.01 "Hg (Jul 13, 5:20 pm)
Average65 °F88%30.12 "Hg
* Reported Jun 29 9:00 am — Jul 14 9:00 am, Santa Cruz de Tenerife. Weather by CustomWeather, © 2024

Note: Actual official high and low records may vary slightly from our data, if they occured in-between our weather recording intervals... More about our weather records

Santa Cruz de Tenerife Weather History for the Previous 24 Hours

Scroll right to see more
 ConditionsComfort  
Time TempWeatherWind HumidityBarometerVisibility
9:00 am
Sun, Jul 14
66 °FMild.9 mph83%30.04 "HgN/A
8:00 am63 °FMild.12 mph83%30.04 "HgN/A
7:30 am63 °FMild.13 mph100%30.04 "HgN/A
7:00 am64 °FMild.10 mph100%30.01 "HgN/A
6:30 am61 °FCool.14 mph100%30.01 "HgN/A
6:00 am61 °FFog.16 mph100%30.01 "Hg0 mi
5:30 am61 °FFog.14 mph100%30.01 "Hg0 mi
5:00 am61 °FCool.13 mph88%30.01 "Hg2 mi
4:30 am64 °FFog.12 mph73%30.01 "HgN/A
4:00 am68 °FClear.12 mph49%30.01 "Hg10 mi
3:30 am72 °FClear.9 mph44%30.01 "Hg10 mi
3:00 am73 °FClear.9 mph41%30.01 "Hg10 mi
2:30 am70 °FPassing clouds.9 mph53%30.01 "HgN/A
1:30 am68 °FClear.9 mph49%30.04 "Hg10 mi
1:00 am68 °FFog.8 mph60%30.04 "HgN/A
12:30 am63 °FFog.9 mph88%30.04 "Hg3 mi
12:00 am64 °FFog.8 mph68%30.04 "HgN/A
11:30 pm
Sat, Jul 13
64 °FFog.8 mph78%30.04 "HgN/A
11:00 pm63 °FMild.12 mph100%30.04 "Hg5 mi
10:30 pm63 °FPassing clouds.13 mph100%30.04 "Hg5 mi
10:00 pm63 °FPassing clouds.13 mph100%30.04 "Hg5 mi
9:30 pm63 °FPassing clouds.14 mph100%30.04 "Hg5 mi
9:00 pm63 °FScattered clouds.15 mph100%30.04 "HgN/A
8:30 pm64 °FScattered clouds.15 mph94%30.04 "HgN/A
8:00 pm66 °FPartly sunny.17 mph88%30.04 "Hg6 mi
7:30 pm66 °FBroken clouds.17 mph94%30.04 "Hg4 mi
7:00 pm64 °FDense fog.17 mph94%30.01 "Hg2 mi
6:30 pm64 °FDense fog.18 mph94%30.04 "Hg1 mi
6:00 pm66 °FFog.17 mph94%30.01 "Hg1 mi
5:20 pm68 °FPartly sunny.17 mph83%30.01 "HgN/A
5:00 pm68 °FScattered clouds.17 mph83%30.04 "HgN/A
4:30 pm70 °FScattered clouds.17 mph83%30.04 "HgN/A
4:00 pm70 °FScattered clouds.16 mph78%30.04 "HgN/A
3:30 pm75 °FPassing clouds.14 mph69%30.04 "HgN/A
3:00 pm75 °FPassing clouds.12 mph65%30.04 "HgN/A
2:30 pm77 °FPassing clouds.8 mph61%30.04 "HgN/A
2:00 pm77 °FPassing clouds.12 mph65%30.07 "HgN/A
1:30 pm73 °FPassing clouds.15 mph69%30.04 "HgN/A
1:00 pm77 °FSunny.12 mph61%30.04 "Hg10 mi
12:30 pm84 °FPassing clouds.5 mph45%30.04 "HgN/A
12:00 pm81 °FPassing clouds.6 mph51%30.04 "HgN/A
11:30 am84 °FPassing clouds.5 mph31%30.04 "HgN/A
11:00 am82 °FSunny.5 mph30%30.04 "Hg10 mi
10:30 am82 °FPassing clouds.3 mph30%30.04 "HgN/A
10:00 am81 °FSunny.1 mph30%30.07 "Hg10 mi
Weather by CustomWeather, © 2024

See weather overview